createdAt,value
2023-04-26T00:00:07.540Z,18.42
2023-04-26T00:02:34.115Z,17.17
2023-04-26T00:05:01.046Z,16.98
2023-04-26T00:07:27.778Z,16.35
2023-04-26T00:09:54.318Z,17.45
2023-04-26T00:12:20.841Z,17.58
2023-04-26T00:14:47.688Z,16.08
2023-04-26T00:17:14.151Z,15.35
2023-04-26T00:19:40.647Z,15.45
2023-04-26T00:22:07.178Z,14.90
2023-04-26T00:24:33.644Z,14.27
2023-04-26T00:27:00.330Z,14.60
2023-04-26T00:29:27.151Z,11.45
2023-04-26T00:31:53.688Z,10.60
2023-04-26T00:34:20.264Z,11.85
2023-04-26T00:36:46.801Z,12.40
2023-04-26T00:39:13.270Z,14.00
2023-04-26T00:41:39.809Z,17.35
2023-04-26T00:44:06.332Z,26.98
2023-04-26T00:46:32.847Z,16.88
2023-04-26T00:48:59.462Z,16.23
2023-04-26T00:51:26.345Z,28.25
2023-04-26T00:53:53.425Z,20.42
2023-04-26T00:56:21.153Z,17.02
2023-04-26T00:58:47.670Z,79.07
2023-04-26T01:01:14.177Z,26.20
2023-04-26T01:03:40.964Z,14.02
2023-04-26T01:06:07.721Z,21.02
2023-04-26T01:08:34.495Z,22.73
2023-04-26T01:11:01.136Z,20.20
2023-04-26T01:13:29.594Z,19.98
2023-04-26T01:15:56.335Z,18.13
2023-04-26T01:18:22.792Z,38.65
2023-04-26T01:20:49.284Z,19.10
2023-04-26T01:23:15.807Z,20.23
2023-04-26T01:25:42.318Z,20.33
2023-04-26T01:28:08.838Z,39.05
2023-04-26T01:30:35.338Z,19.95
2023-04-26T01:33:01.835Z,18.52
2023-04-26T01:35:28.367Z,12.02
2023-04-26T01:37:54.899Z,12.63
2023-04-26T01:40:21.374Z,11.50
2023-04-26T01:42:47.952Z,10.90
2023-04-26T01:45:14.497Z,9.05
2023-04-26T01:47:41.049Z,46.05
2023-04-26T01:50:08.329Z,18.75
2023-04-26T01:52:34.792Z,7.55
2023-04-26T01:55:01.263Z,9.40
2023-04-26T01:57:27.772Z,9.80
2023-04-26T01:59:54.220Z,8.10
2023-04-26T02:02:20.708Z,9.48
2023-04-26T02:04:47.262Z,8.13
2023-04-26T02:07:13.766Z,8.60
2023-04-26T02:09:40.252Z,6.63
2023-04-26T02:12:06.822Z,7.80
2023-04-26T02:14:33.346Z,8.45
2023-04-26T02:16:59.863Z,7.93
2023-04-26T02:19:26.408Z,7.20
2023-04-26T02:21:55.214Z,6.45
2023-04-26T02:24:21.723Z,6.32
2023-04-26T02:26:48.214Z,6.57
2023-04-26T02:29:14.747Z,5.47
2023-04-26T02:31:41.457Z,5.72
2023-04-26T02:34:08.024Z,5.72
2023-04-26T02:36:34.613Z,5.57
2023-04-26T02:39:01.307Z,5.40
2023-04-26T02:41:27.840Z,11.02
2023-04-26T02:43:54.323Z,20.50
2023-04-26T02:46:20.852Z,26.58
2023-04-26T02:48:47.368Z,13.75
2023-04-26T02:51:13.819Z,7.07
2023-04-26T02:53:40.307Z,7.45
2023-04-26T02:56:06.979Z,7.15
2023-04-26T02:58:33.491Z,6.22
2023-04-26T03:01:01.702Z,6.75
2023-04-26T03:03:28.897Z,6.18
2023-04-26T03:05:55.525Z,6.13
2023-04-26T03:08:22.112Z,6.22
2023-04-26T03:10:48.597Z,6.20
2023-04-26T03:13:15.090Z,6.18
2023-04-26T03:15:45.866Z,5.97
2023-04-26T03:18:12.400Z,6.05
2023-04-26T03:20:38.872Z,6.60
2023-04-26T03:23:05.376Z,6.22
2023-04-26T03:25:33.286Z,5.60
2023-04-26T03:27:59.997Z,6.05
2023-04-26T03:30:26.492Z,7.22
2023-04-26T03:32:53.260Z,6.45
2023-04-26T03:35:19.794Z,7.00
2023-04-26T03:37:46.298Z,7.18
2023-04-26T03:40:12.902Z,5.82
2023-04-26T03:42:39.391Z,6.88
2023-04-26T03:45:06.565Z,6.45
2023-04-26T03:47:33.159Z,5.75
2023-04-26T03:49:59.820Z,5.72
2023-04-26T03:52:26.396Z,5.82
2023-04-26T03:54:52.974Z,5.43
2023-04-26T03:57:19.453Z,6.30
2023-04-26T03:59:45.958Z,5.95
2023-04-26T04:02:12.578Z,6.25
2023-04-26T04:04:39.237Z,6.13
2023-04-26T04:07:05.841Z,13.02
2023-04-26T04:09:32.322Z,17.58
2023-04-26T04:11:58.815Z,12.10
2023-04-26T04:14:25.276Z,13.75
2023-04-26T04:16:51.790Z,10.60
2023-04-26T04:19:18.424Z,9.05
2023-04-26T04:21:44.878Z,8.93
2023-04-26T04:24:11.421Z,8.13
2023-04-26T04:26:37.887Z,6.10
2023-04-26T04:29:04.415Z,8.88
2023-04-26T04:31:30.923Z,6.60
2023-04-26T04:33:57.460Z,7.40
2023-04-26T04:36:23.943Z,4.15
2023-04-26T04:38:50.528Z,3.80
2023-04-26T04:41:17.252Z,5.00
2023-04-26T04:43:43.717Z,5.13
2023-04-26T04:46:12.442Z,4.50
2023-04-26T04:48:39.240Z,6.13
2023-04-26T04:51:05.740Z,5.10
2023-04-26T04:53:32.281Z,4.75
2023-04-26T04:55:58.777Z,3.78
2023-04-26T04:58:25.360Z,3.78
2023-04-26T05:00:51.927Z,7.35
2023-04-26T05:03:18.520Z,7.30
2023-04-26T05:05:45.181Z,7.22
2023-04-26T05:08:11.676Z,35.72
2023-04-26T05:10:38.183Z,11.25
2023-04-26T05:13:04.734Z,8.85
2023-04-26T05:15:31.370Z,6.82
2023-04-26T05:17:57.879Z,5.70
2023-04-26T05:20:24.390Z,4.90
2023-04-26T05:22:50.986Z,4.05
2023-04-26T05:25:17.704Z,5.32
2023-04-26T05:27:44.431Z,3.22
2023-04-26T05:30:11.436Z,2.13
2023-04-26T05:32:38.005Z,2.05
2023-04-26T05:35:04.841Z,1.42
2023-04-26T05:39:57.804Z,1.35
2023-04-26T05:42:24.283Z,8.20
2023-04-26T05:44:50.860Z,4.72
2023-04-26T05:47:17.377Z,2.33
2023-04-26T05:49:43.878Z,3.22
2023-04-26T05:52:10.385Z,8.25
2023-04-26T05:54:36.880Z,6.10
2023-04-26T05:57:03.599Z,1.25
2023-04-26T06:01:56.607Z,2.40
2023-04-26T06:04:23.275Z,2.22
2023-04-26T06:09:17.822Z,2.40
2023-04-26T06:11:45.422Z,2.63
2023-04-26T06:14:20.027Z,2.10
2023-04-26T06:16:57.320Z,1.90
2023-04-26T06:19:23.889Z,2.00
2023-04-26T06:21:50.358Z,1.98
2023-04-26T06:24:16.843Z,2.65
2023-04-26T06:26:43.353Z,1.52
2023-04-26T06:29:09.819Z,2.53
2023-04-26T06:31:36.365Z,2.78
2023-04-26T06:34:02.949Z,1.65
2023-04-26T06:36:29.511Z,1.38
2023-04-26T06:38:56.034Z,1.33
2023-04-26T06:41:22.589Z,2.60
2023-04-26T06:43:49.353Z,1.70
2023-04-26T06:48:42.362Z,1.92
2023-04-26T06:51:09.180Z,1.65
2023-04-26T06:56:02.665Z,2.08
2023-04-26T06:58:29.294Z,2.00
2023-04-26T07:00:55.766Z,3.15
2023-04-26T07:03:22.430Z,2.63
2023-04-26T07:05:48.972Z,2.72
2023-04-26T07:08:15.492Z,2.25
2023-04-26T07:10:42.261Z,2.08
2023-04-26T07:13:09.661Z,2.00
2023-04-26T07:15:36.298Z,1.90
2023-04-26T07:18:02.897Z,2.50
2023-04-26T07:20:29.461Z,2.03
2023-04-26T07:22:55.928Z,18.98
2023-04-26T07:25:22.424Z,24.98
2023-04-26T07:27:48.881Z,3.03
2023-04-26T07:30:15.384Z,2.90
2023-04-26T07:32:42.047Z,2.45
2023-04-26T07:35:10.156Z,2.25
2023-04-26T07:37:36.635Z,2.05
2023-04-26T07:40:03.263Z,3.03
2023-04-26T07:42:29.734Z,2.55
2023-04-26T07:44:56.285Z,6.15
2023-04-26T07:47:22.921Z,11.45
2023-04-26T07:49:53.555Z,1.88
2023-04-26T07:52:20.239Z,1.70
2023-04-26T07:54:46.764Z,2.03
2023-04-26T07:57:13.297Z,1.88
2023-04-26T07:59:39.797Z,2.20
2023-04-26T08:02:06.436Z,1.80
2023-04-26T08:04:34.259Z,3.85
2023-04-26T08:07:01.393Z,2.33
2023-04-26T08:09:28.961Z,2.53
2023-04-26T08:11:55.448Z,2.17
2023-04-26T08:14:22.017Z,1.85
2023-04-26T08:16:48.564Z,1.65
2023-04-26T08:19:15.077Z,1.67
2023-04-26T08:21:41.614Z,1.70
2023-04-26T08:24:08.216Z,1.65
2023-04-26T08:26:34.673Z,1.52
2023-04-26T08:29:01.146Z,1.90
2023-04-26T08:31:27.745Z,1.77
2023-04-26T08:33:54.538Z,1.52
2023-04-26T08:36:21.184Z,12.35
2023-04-26T08:38:47.710Z,3.17
2023-04-26T08:41:22.619Z,2.55
2023-04-26T08:43:50.198Z,1.98
2023-04-26T08:46:19.626Z,1.58
2023-04-26T08:48:54.653Z,2.00
2023-04-26T08:51:22.015Z,2.10
2023-04-26T08:53:51.728Z,1.88
2023-04-26T08:56:18.538Z,2.05
2023-04-26T08:58:45.142Z,2.15
2023-04-26T09:01:15.140Z,1.60
2023-04-26T09:03:41.853Z,1.92
2023-04-26T09:06:09.027Z,1.38
2023-04-26T09:08:39.824Z,1.50
2023-04-26T09:11:06.339Z,2.20
2023-04-26T09:13:32.897Z,2.00
2023-04-26T09:15:59.711Z,2.15
2023-04-26T09:18:27.038Z,1.90
2023-04-26T09:21:07.859Z,2.13
2023-04-26T09:23:35.277Z,2.20
2023-04-26T09:26:21.390Z,2.20
2023-04-26T09:28:48.058Z,1.67
2023-04-26T09:31:37.840Z,2.03
2023-04-26T09:34:04.552Z,2.00
2023-04-26T09:36:31.130Z,1.67
2023-04-26T09:38:58.055Z,2.28
2023-04-26T09:41:24.568Z,2.28
2023-04-26T09:43:52.657Z,2.17
2023-04-26T09:46:23.256Z,2.15
2023-04-26T09:49:01.276Z,2.45
2023-04-26T09:51:27.784Z,2.28
2023-04-26T09:53:55.608Z,1.48
2023-04-26T09:56:23.160Z,1.80
2023-04-26T09:58:58.500Z,1.92
2023-04-26T10:01:27.065Z,2.35
2023-04-26T10:03:55.390Z,1.98
2023-04-26T10:06:23.637Z,1.65
2023-04-26T10:08:50.167Z,2.13
2023-04-26T10:11:18.150Z,3.00
2023-04-26T10:13:44.615Z,5.90
2023-04-26T10:16:11.192Z,3.50
2023-04-26T10:18:38.010Z,3.88
2023-04-26T10:23:37.399Z,3.30
2023-04-26T10:26:04.092Z,4.88
2023-04-26T10:28:45.616Z,3.95
2023-04-26T10:31:12.521Z,3.25
2023-04-26T10:33:39.159Z,1.58
2023-04-26T10:36:13.297Z,2.08
2023-04-26T10:39:28.813Z,2.40
2023-04-26T10:42:17.985Z,1.75
2023-04-26T10:44:44.485Z,1.88
2023-04-26T10:47:34.437Z,2.22
2023-04-26T10:50:11.220Z,2.63
2023-04-26T10:53:02.722Z,2.22
2023-04-26T10:55:42.652Z,2.15
2023-04-26T10:58:34.949Z,1.20
2023-04-26T11:01:08.831Z,1.73
2023-04-26T11:03:35.660Z,2.00
2023-04-26T11:06:06.849Z,1.30
2023-04-26T11:08:33.353Z,2.15
2023-04-26T11:11:11.574Z,2.33
2023-04-26T11:13:43.331Z,1.48
2023-04-26T11:16:14.906Z,1.52
2023-04-26T11:18:45.814Z,1.70
2023-04-26T11:21:12.897Z,5.55
2023-04-26T11:23:40.010Z,11.15
2023-04-26T11:26:08.153Z,5.05
2023-04-26T11:28:37.042Z,2.78
2023-04-26T11:31:05.059Z,1.67
2023-04-26T11:33:32.283Z,1.10
2023-04-26T11:35:58.904Z,2.17
2023-04-26T11:41:00.729Z,1.40
2023-04-26T11:43:37.976Z,1.80
2023-04-26T11:46:08.922Z,1.65
2023-04-26T11:48:37.659Z,12.00
2023-04-26T11:51:05.429Z,14.27
2023-04-26T11:53:41.971Z,2.60
2023-04-26T11:56:19.437Z,2.28
2023-04-26T11:58:55.237Z,1.92
2023-04-26T12:01:23.936Z,2.08
2023-04-26T12:03:52.369Z,2.53
2023-04-26T12:06:19.861Z,1.83
2023-04-26T12:08:50.878Z,2.03
2023-04-26T12:11:18.314Z,2.22
2023-04-26T12:13:46.559Z,1.98
2023-04-26T12:16:25.781Z,2.50
2023-04-26T12:18:54.915Z,2.00
2023-04-26T12:21:21.625Z,8.45
2023-04-26T12:26:15.137Z,2.25
2023-04-26T12:28:42.080Z,2.47
2023-04-26T12:31:08.731Z,1.88
2023-04-26T12:36:12.613Z,1.90
2023-04-26T12:38:39.505Z,2.58
2023-04-26T12:41:06.374Z,2.15
2023-04-26T12:43:33.043Z,2.33
2023-04-26T12:46:00.438Z,2.90
2023-04-26T12:48:26.977Z,3.92
2023-04-26T12:50:53.489Z,2.00
2023-04-26T12:53:19.966Z,2.55
2023-04-26T12:55:46.514Z,3.83
2023-04-26T12:58:13.395Z,2.38
2023-04-26T13:00:40.081Z,2.75
2023-04-26T13:03:06.744Z,4.30
2023-04-26T13:07:59.996Z,2.95
2023-04-26T13:10:26.492Z,2.58
2023-04-26T13:12:52.996Z,2.22
2023-04-26T13:15:19.637Z,6.88
2023-04-26T13:17:46.146Z,2.45
2023-04-26T13:20:13.222Z,2.17
2023-04-26T13:22:39.745Z,2.30
2023-04-26T13:25:06.720Z,3.50
2023-04-26T13:27:33.257Z,3.28
2023-04-26T13:29:59.802Z,2.90
2023-04-26T13:32:26.426Z,3.30
2023-04-26T13:34:53.036Z,3.33
2023-04-26T13:37:20.100Z,2.35
2023-04-26T13:39:47.261Z,2.83
2023-04-26T13:42:15.181Z,2.60
2023-04-26T13:44:41.806Z,2.55
2023-04-26T13:47:08.294Z,2.00
2023-04-26T13:49:34.778Z,1.80
2023-04-26T13:52:01.233Z,1.85
2023-04-26T13:54:27.770Z,2.55
2023-04-26T13:56:54.254Z,3.60
2023-04-26T13:59:20.755Z,2.70
2023-04-26T14:01:47.278Z,1.90
2023-04-26T14:04:14.074Z,1.90
2023-04-26T14:06:40.742Z,6.80
2023-04-26T14:09:07.294Z,5.78
2023-04-26T14:11:33.877Z,2.40
2023-04-26T14:14:00.350Z,2.22
2023-04-26T14:16:27.205Z,2.45
2023-04-26T14:18:53.767Z,2.30
2023-04-26T14:21:20.361Z,3.45
2023-04-26T14:23:46.973Z,2.85
2023-04-26T14:26:13.503Z,2.20
2023-04-26T14:28:40.226Z,2.78
2023-04-26T14:33:33.094Z,7.55
2023-04-26T14:35:59.652Z,2.15
2023-04-26T14:38:26.216Z,2.25
2023-04-26T14:40:52.792Z,1.90
2023-04-26T14:43:19.303Z,2.22
2023-04-26T14:45:45.853Z,2.58
2023-04-26T14:48:12.442Z,2.35
2023-04-26T14:50:38.965Z,1.83
2023-04-26T14:53:05.493Z,2.30
2023-04-26T14:55:32.077Z,2.30
2023-04-26T14:57:58.619Z,2.28
2023-04-26T15:00:25.188Z,2.35
2023-04-26T15:02:51.906Z,1.85
2023-04-26T15:05:18.640Z,3.05
2023-04-26T15:07:45.147Z,3.42
2023-04-26T15:10:11.637Z,3.72
2023-04-26T15:12:38.161Z,3.55
2023-04-26T15:15:05.073Z,3.00
2023-04-26T15:17:32.644Z,2.92
2023-04-26T15:19:59.236Z,3.05
2023-04-26T15:22:25.754Z,2.63
2023-04-26T15:24:52.304Z,3.03
2023-04-26T15:27:18.802Z,1.90
2023-04-26T15:29:45.390Z,2.28
2023-04-26T15:32:11.885Z,2.67
2023-04-26T15:34:40.316Z,2.03
2023-04-26T15:37:06.799Z,2.53
2023-04-26T15:39:33.367Z,2.30
2023-04-26T15:41:59.878Z,3.13
2023-04-26T15:44:26.392Z,2.28
2023-04-26T15:46:52.857Z,2.65
2023-04-26T15:49:19.384Z,2.75
2023-04-26T15:51:45.857Z,2.10
2023-04-26T15:54:12.352Z,2.67
2023-04-26T15:56:38.916Z,1.70
2023-04-26T15:59:05.401Z,3.95
2023-04-26T16:01:31.942Z,3.10
2023-04-26T16:03:58.671Z,3.90
2023-04-26T16:08:51.736Z,3.40
2023-04-26T16:11:18.226Z,3.03
2023-04-26T16:13:44.759Z,10.73
2023-04-26T16:16:12.523Z,19.25
2023-04-26T16:18:39.071Z,2.80
2023-04-26T16:21:08.211Z,4.05
2023-04-26T16:23:35.158Z,6.13
2023-04-26T16:26:01.765Z,6.35
2023-04-26T16:28:28.449Z,5.15
2023-04-26T16:30:55.010Z,4.57
2023-04-26T16:33:22.989Z,4.82
2023-04-26T16:35:51.427Z,4.93
2023-04-26T16:38:18.644Z,5.28
2023-04-26T16:40:45.303Z,5.05
2023-04-26T16:43:11.785Z,9.43
2023-04-26T16:45:38.320Z,6.13
2023-04-26T16:48:05.034Z,4.53
2023-04-26T16:50:31.582Z,8.73
2023-04-26T16:52:58.069Z,12.43
2023-04-26T16:55:24.542Z,9.05
2023-04-26T16:57:51.008Z,10.02
2023-04-26T17:00:17.866Z,12.48
2023-04-26T17:02:44.446Z,14.88
2023-04-26T17:05:11.250Z,11.05
2023-04-26T17:07:37.892Z,8.40
2023-04-26T17:10:04.807Z,11.35
2023-04-26T17:12:31.292Z,9.90
2023-04-26T17:14:57.817Z,7.57
2023-04-26T17:17:24.347Z,8.88
2023-04-26T17:19:50.848Z,7.65
2023-04-26T17:22:17.361Z,18.30
2023-04-26T17:24:43.870Z,10.68
2023-04-26T17:27:10.353Z,10.23
2023-04-26T17:29:36.864Z,10.73
2023-04-26T17:32:03.521Z,10.77
2023-04-26T17:34:30.165Z,9.82
2023-04-26T17:36:56.671Z,8.98
2023-04-26T17:39:23.211Z,7.70
2023-04-26T17:41:49.697Z,6.20
2023-04-26T17:44:16.229Z,7.05
2023-04-26T17:46:42.699Z,8.73
2023-04-26T17:49:09.187Z,10.27
2023-04-26T17:51:35.903Z,19.38
2023-04-26T17:54:02.408Z,27.52
2023-04-26T17:56:28.888Z,9.30
2023-04-26T17:58:55.402Z,7.22
2023-04-26T18:01:21.977Z,9.52
2023-04-26T18:03:48.682Z,11.00
2023-04-26T18:06:15.276Z,9.30
2023-04-26T18:08:41.736Z,6.03
2023-04-26T18:11:08.255Z,6.28
2023-04-26T18:13:34.794Z,6.20
2023-04-26T18:16:01.265Z,6.78
2023-04-26T18:18:28.083Z,5.97
2023-04-26T18:20:54.699Z,6.60
2023-04-26T18:23:21.374Z,5.55
2023-04-26T18:25:48.079Z,5.40
2023-04-26T18:28:14.619Z,7.10
2023-04-26T18:30:41.152Z,18.60
2023-04-26T18:33:07.733Z,6.97
2023-04-26T18:35:34.289Z,6.50
2023-04-26T18:38:00.764Z,9.05
2023-04-26T18:40:27.266Z,6.28
2023-04-26T18:42:53.819Z,5.10
2023-04-26T18:45:20.316Z,5.82
2023-04-26T18:47:46.802Z,5.40
2023-04-26T18:50:13.371Z,5.10
2023-04-26T18:52:39.860Z,5.00
2023-04-26T18:55:07.126Z,9.10
2023-04-26T18:57:33.663Z,11.43
2023-04-26T19:00:00.168Z,7.03
2023-04-26T19:02:26.752Z,6.13
2023-04-26T19:04:53.491Z,4.43
2023-04-26T19:07:20.220Z,3.78
2023-04-26T19:09:54.022Z,4.03
2023-04-26T19:12:21.399Z,4.03
2023-04-26T19:14:47.879Z,4.95
2023-04-26T19:17:14.347Z,5.65
2023-04-26T19:19:40.876Z,4.05
2023-04-26T19:22:07.415Z,4.63
2023-04-26T19:24:33.911Z,4.10
2023-04-26T19:27:00.399Z,6.85
2023-04-26T19:29:26.848Z,4.20
2023-04-26T19:31:53.397Z,2.83
2023-04-26T19:34:19.989Z,3.22
2023-04-26T19:36:46.479Z,3.15
2023-04-26T19:39:12.957Z,3.88
2023-04-26T19:41:39.491Z,4.28
2023-04-26T19:44:06.010Z,3.88
2023-04-26T19:46:32.572Z,4.55
2023-04-26T19:48:59.139Z,4.80
2023-04-26T19:51:25.628Z,5.10
2023-04-26T19:53:52.121Z,4.80
2023-04-26T19:56:18.628Z,4.13
2023-04-26T19:58:45.139Z,5.15
2023-04-26T20:01:11.680Z,4.30
2023-04-26T20:03:38.496Z,3.80
2023-04-26T20:06:05.153Z,4.68
2023-04-26T20:08:31.809Z,3.67
2023-04-26T20:11:02.345Z,3.13
2023-04-26T20:13:29.001Z,4.50
2023-04-26T20:15:55.551Z,4.05
2023-04-26T20:18:22.176Z,5.65
2023-04-26T20:20:48.690Z,4.30
2023-04-26T20:23:15.745Z,3.72
2023-04-26T20:25:42.260Z,3.92
2023-04-26T20:28:08.765Z,3.50
2023-04-26T20:30:35.288Z,3.42
2023-04-26T20:33:01.853Z,3.65
2023-04-26T20:35:28.407Z,4.00
2023-04-26T20:37:56.200Z,4.28
2023-04-26T20:40:22.804Z,3.42
2023-04-26T20:42:49.346Z,3.92
2023-04-26T20:45:15.902Z,4.00
2023-04-26T20:47:42.486Z,5.82
2023-04-26T20:50:09.438Z,5.25
2023-04-26T20:52:35.930Z,6.13
2023-04-26T20:55:02.493Z,7.65
2023-04-26T20:57:29.062Z,4.18
2023-04-26T20:59:55.543Z,5.07
2023-04-26T21:02:22.215Z,3.08
2023-04-26T21:04:49.241Z,4.18
2023-04-26T21:07:15.800Z,2.72
2023-04-26T21:09:42.332Z,3.25
2023-04-26T21:12:08.856Z,3.75
2023-04-26T21:14:35.344Z,3.90
2023-04-26T21:17:01.842Z,5.15
2023-04-26T21:19:28.397Z,5.05
2023-04-26T21:21:54.870Z,4.78
2023-04-26T21:24:21.393Z,4.55
2023-04-26T21:26:47.863Z,3.25
2023-04-26T21:29:14.391Z,2.85
2023-04-26T21:31:40.984Z,2.97
2023-04-26T21:34:07.513Z,3.10
2023-04-26T21:36:33.988Z,3.25
2023-04-26T21:39:00.496Z,3.85
2023-04-26T21:41:26.999Z,8.00
2023-04-26T21:43:53.472Z,4.95
2023-04-26T21:46:20.023Z,2.83
2023-04-26T21:48:46.574Z,3.65
2023-04-26T21:51:13.071Z,4.43
2023-04-26T21:53:39.558Z,4.45
2023-04-26T21:56:06.266Z,3.78
2023-04-26T21:58:32.725Z,5.43
2023-04-26T22:01:10.377Z,5.20
2023-04-26T22:03:37.596Z,4.18
2023-04-26T22:08:34.424Z,4.72
2023-04-26T22:11:01.384Z,4.97
2023-04-26T22:13:28.041Z,4.18
2023-04-26T22:15:54.634Z,4.60
2023-04-26T22:18:21.100Z,2.85
2023-04-26T22:20:47.676Z,3.20
2023-04-26T22:23:14.182Z,2.75
2023-04-26T22:25:40.723Z,3.63
2023-04-26T22:28:07.218Z,4.70
2023-04-26T22:30:33.715Z,3.75
2023-04-26T22:33:00.304Z,3.83
2023-04-26T22:35:28.130Z,4.55
2023-04-26T22:37:55.153Z,3.95
2023-04-26T22:40:21.874Z,3.13
2023-04-26T22:42:48.363Z,3.53
2023-04-26T22:45:14.909Z,2.60
2023-04-26T22:47:41.436Z,2.53
2023-04-26T22:50:08.467Z,2.75
2023-04-26T22:52:35.526Z,2.95
2023-04-26T22:55:02.432Z,3.33
2023-04-26T22:57:30.003Z,3.05
2023-04-26T22:59:57.042Z,2.40
2023-04-26T23:02:24.194Z,2.90
2023-04-26T23:07:17.300Z,6.03
2023-04-26T23:09:43.865Z,3.97
2023-04-26T23:12:10.496Z,4.53
2023-04-26T23:14:37.099Z,6.47
2023-04-26T23:17:03.641Z,2.58
2023-04-26T23:19:30.149Z,3.20
2023-04-26T23:21:56.726Z,3.55
2023-04-26T23:24:23.301Z,3.10
2023-04-26T23:26:49.807Z,3.55
2023-04-26T23:29:16.362Z,3.78
2023-04-26T23:31:43.029Z,4.03
2023-04-26T23:34:09.717Z,5.03
2023-04-26T23:36:36.275Z,16.65
2023-04-26T23:39:02.872Z,6.60
2023-04-26T23:41:29.357Z,7.18
2023-04-26T23:43:55.850Z,6.70
2023-04-26T23:46:22.530Z,5.18
2023-04-26T23:48:49.062Z,2.00
2023-04-26T23:51:15.621Z,3.30
2023-04-26T23:53:42.151Z,2.28
2023-04-26T23:56:08.619Z,1.98
2023-04-26T23:58:35.089Z,1.67
